Boynton Beach, FL (33435)

4:57 PM EDT on August 21, 2014 (GMT -0400)
Forest Park | Change Station
CLOSE
Current Station
Personal Weather Station
Location: Boynton Beach, FL
Elevation: 15 ft
Nearby Weather Stations

Elev 15 ft 26.52 °N, 80.07 °W | Updated 3 seconds ago

Mostly Cloudy
Mostly Cloudy
92.5 °F
Feels Like 110 °F
N
6.9
Wind Variable Wind from SE
Gusts 6.9 mph

Today
High -- | Low -- °F
--% Chance of Precip.
Yesterday
High -- | Low -- °F
Precip. -- in
6:55 AM 7:51 PM
Waning Crescent, 12% visible
Pressure 30.06 in
Visibility 10.0 miles
Clouds Scattered Clouds 2800 ft
Scattered Clouds 7000 ft
Mostly Cloudy 25000 ft
Heat Index 110 °F
Dew Point 79 °F
Humidity 65%
Rainfall 0.00 in
Snow Depth Not available.
UV 5 out of 12
Pollen 4.80 out of 12
Air Quality Not available.
Flu Activity Not available.
METAR KPBI 211953Z 09011KT 10SM SCT028 SCT070 BKN250 32/24 A3007 RMK AO2 SLP180 CB DSNT E SE W T03220239 $

More Conditions Fewer Conditions

Pressure 30.06 in
Visibility 10.0 miles
Clouds Scattered Clouds 2800 ft
Scattered Clouds 7000 ft
Mostly Cloudy 25000 ft
Heat Index 110 °F
Dew Point 79 °F
Humidity 65%
Rainfall 0.00 in
Snow Depth Not available.
UV 5 out of 12
Pollen 4.80 out of 12
Air Quality Not available.
Flu Activity Not available.
METAR KPBI 211953Z 09011KT 10SM SCT028 SCT070 BKN250 32/24 A3007 RMK AO2 SLP180 CB DSNT E SE W T03220239 $

More Conditions Fewer Conditions

Nowcast | as of 4:39 PM EDT on August 21, 2014

Through 530 PM, scattered showers and thunderstorms will affect the western suburbs of the Miami/Fort Lauderdale and Palm Beach areas, mainly along the US 27 corridor in northern Miami-Dade and Broward counties and west of US 441 in Palm Beach County including Lake Okeechobee. The showers and thunderstorms are moving west at 10 mph.

×

10-Day Weather Forecast

Almanac

Astronomy

Aug. 21, 2014 Rise Set
Actual Time 6:55 AM EDT 7:51 PM EDT
Civil Twilight 6:31 AM EDT 8:15 PM EDT
Nautical Twilight 6:02 AM EDT 8:43 PM EDT
Astronomical Twilight 5:33 AM EDT 9:12 PM EDT
Moon 3:33 AM EDT 5:10 PM EDT
Length of Visible Light 13h 43m
Length of Day
12h 56m
Tomorrow will be 1m 25s shorter.
Waning Crescent, 12% of the Moon is Illuminated
Today
Waning Crescent
Aug 25
New
Sep 2
First Quarter
Sep 8
Full
Sep 15
Last Quarter

Today's Extremes

State Highs State Lows

Community

WunderPhotos

Upload Photos

1,746,017 photos uploaded!

WunderBlogs® & News

Nearby

Air Quality

  Air Quality AQ Index Pollutant
Yesterday Good
OZONE
Thursday Good
OZONE
Thursday Good
PM2.5
Friday Good
OZONE
Friday Good
PM2.5

Snow Depth

Station Depth Elevation
No new snow has been reported.

Earthquake Activity

City Distance Mag. Time & Date
No recent earthquake activity has been reported nearby.
Minimum magnitude displayed is 2.5.

Coastal Water Temperatures

Place Temperature
Lake Worth, FL 89.1 °F
Virginia Key, FL 91.0 °F

Nearby Weather Stations